QFA433 YSSY-YMML
Flight info
| Callsign | QFA433 |
|---|---|
| Flight time | N/A |
| Altitude | 38000 |
| Route | MARUB7/34R WOL H65 LEECE Q29 ML |
| Aircraft | A333/H-SDE3GHIJ2J3J5M1RVWXY/LB2D1 |
Departure
| Time | 2026-05-04 02:13 |
|---|---|
| Airport | Sydney Kingsford Smith International Airport (YSSY) |
Arrival
| Time | N/A |
|---|---|
| Airport | Melbourne Airport (YMML) |
| Time | Latitude | Longitude | Altitude | Speed | Heading |
|---|---|---|---|---|---|
| 2026-05-04 01:44 | -33.93091 | 151.17622 | 24 ft | 0 kts | 167° |
| 2026-05-04 01:56 | -33.93089 | 151.17622 | 24 ft | 2 kts | 167° |
| 2026-05-04 01:57 | -33.93074 | 151.17618 | 25 ft | 2 kts | 167° |
| 2026-05-04 01:57 | -33.93059 | 151.17615 | 25 ft | 2 kts | 168° |
| 2026-05-04 01:57 | -33.93045 | 151.17613 | 25 ft | 2 kts | 196° |
| 2026-05-04 01:57 | -33.93031 | 151.17621 | 26 ft | 2 kts | 219° |
| 2026-05-04 01:58 | -33.93021 | 151.17633 | 26 ft | 2 kts | 243° |
| 2026-05-04 01:58 | -33.93016 | 151.17650 | 26 ft | 2 kts | 266° |
| 2026-05-04 01:58 | -33.93016 | 151.17664 | 26 ft | 0 kts | 283° |
| 2026-05-04 01:58 | -33.93017 | 151.17668 | 26 ft | 0 kts | 284° |
| 2026-05-04 02:00 | -33.93013 | 151.17647 | 26 ft | 4 kts | 281° |
| 2026-05-04 02:00 | -33.93008 | 151.17595 | 26 ft | 7 kts | 265° |
| 2026-05-04 02:01 | -33.93047 | 151.17540 | 25 ft | 11 kts | 211° |
| 2026-05-04 02:01 | -33.93131 | 151.17528 | 24 ft | 13 kts | 172° |
| 2026-05-04 02:01 | -33.93239 | 151.17555 | 22 ft | 19 kts | 168° |
| 2026-05-04 02:01 | -33.93348 | 151.17584 | 19 ft | 15 kts | 168° |
| 2026-05-04 02:02 | -33.93455 | 151.17587 | 15 ft | 16 kts | 186° |
| 2026-05-04 02:02 | -33.93572 | 151.17607 | 13 ft | 17 kts | 168° |
| 2026-05-04 02:02 | -33.93675 | 151.17658 | 13 ft | 14 kts | 153° |
| 2026-05-04 02:02 | -33.93766 | 151.17693 | 13 ft | 13 kts | 167° |
| 2026-05-04 02:03 | -33.93849 | 151.17743 | 14 ft | 13 kts | 137° |
| 2026-05-04 02:03 | -33.93946 | 151.17792 | 16 ft | 17 kts | 167° |
| 2026-05-04 02:03 | -33.94082 | 151.17827 | 18 ft | 21 kts | 168° |
| 2026-05-04 02:03 | -33.94235 | 151.17865 | 22 ft | 21 kts | 168° |
| 2026-05-04 02:04 | -33.94369 | 151.17900 | 28 ft | 16 kts | 168° |
| 2026-05-04 02:04 | -33.94474 | 151.17896 | 29 ft | 14 kts | 204° |
| 2026-05-04 02:04 | -33.94571 | 151.17896 | 30 ft | 14 kts | 168° |
| 2026-05-04 02:04 | -33.94664 | 151.17920 | 31 ft | 13 kts | 167° |
| 2026-05-04 02:05 | -33.94750 | 151.17943 | 31 ft | 12 kts | 167° |
| 2026-05-04 02:05 | -33.94845 | 151.17967 | 31 ft | 15 kts | 167° |
| 2026-05-04 02:05 | -33.94955 | 151.17996 | 30 ft | 16 kts | 168° |
| 2026-05-04 02:05 | -33.95056 | 151.18022 | 27 ft | 11 kts | 167° |
| 2026-05-04 02:06 | -33.95100 | 151.18085 | 26 ft | 10 kts | 96° |
| 2026-05-04 02:06 | -33.95091 | 151.18175 | 25 ft | 12 kts | 77° |
| 2026-05-04 02:06 | -33.95070 | 151.18291 | 24 ft | 10 kts | 77° |
| 2026-05-04 02:06 | -33.95054 | 151.18376 | 23 ft | 2 kts | 78° |
| 2026-05-04 02:07 | -33.95052 | 151.18387 | 23 ft | 1 kts | 78° |
| 2026-05-04 02:07 | -33.95050 | 151.18404 | 23 ft | 2 kts | 78° |
| 2026-05-04 02:07 | -33.95047 | 151.18420 | 23 ft | 3 kts | 78° |
| 2026-05-04 02:07 | -33.95047 | 151.18465 | 22 ft | 8 kts | 104° |
| 2026-05-04 02:08 | -33.95103 | 151.18530 | 20 ft | 14 kts | 141° |
| 2026-05-04 02:08 | -33.95193 | 151.18626 | 19 ft | 19 kts | 137° |
| 2026-05-04 02:08 | -33.95319 | 151.18720 | 17 ft | 24 kts | 162° |
| 2026-05-04 02:08 | -33.95497 | 151.18768 | 15 ft | 24 kts | 168° |
| 2026-05-04 02:09 | -33.95645 | 151.18806 | 14 ft | 22 kts | 168° |
| 2026-05-04 02:09 | -33.95798 | 151.18846 | 13 ft | 22 kts | 168° |
| 2026-05-04 02:09 | -33.95958 | 151.18887 | 13 ft | 25 kts | 168° |
| 2026-05-04 02:09 | -33.96137 | 151.18935 | 13 ft | 26 kts | 167° |
| 2026-05-04 02:10 | -33.96316 | 151.18980 | 13 ft | 25 kts | 167° |
| 2026-05-04 02:10 | -33.96486 | 151.19026 | 15 ft | 24 kts | 168° |
| 2026-05-04 02:10 | -33.96648 | 151.19067 | 16 ft | 23 kts | 168° |
| 2026-05-04 02:10 | -33.96801 | 151.19067 | 17 ft | 21 kts | 180° |
| 2026-05-04 02:11 | -33.96914 | 151.19092 | 17 ft | 13 kts | 168° |
| 2026-05-04 02:11 | -33.97008 | 151.19116 | 17 ft | 13 kts | 168° |
| 2026-05-04 02:11 | -33.97098 | 151.19141 | 17 ft | 11 kts | 158° |
| 2026-05-04 02:11 | -33.97131 | 151.19218 | 17 ft | 10 kts | 91° |
| 2026-05-04 02:12 | -33.97112 | 151.19319 | 17 ft | 13 kts | 77° |
| 2026-05-04 02:12 | -33.97095 | 151.19367 | 17 ft | 7 kts | 36° |
| 2026-05-04 02:12 | -33.97013 | 151.19365 | 17 ft | 24 kts | 349° |
| 2026-05-04 02:12 | -33.96585 | 151.19255 | 17 ft | 100 kts | 348° |
| 2026-05-04 02:13 | -33.95674 | 151.19016 | 21 ft | 163 kts | 347° |
| 2026-05-04 02:13 | -33.94538 | 151.18739 | 653 ft | 166 kts | 348° |
| 2026-05-04 02:13 | -33.93447 | 151.18849 | 1525 ft | 164 kts | 25° |
| 2026-05-04 02:13 | -33.92708 | 151.19890 | 2095 ft | 177 kts | 65° |
| 2026-05-04 02:14 | -33.92714 | 151.21431 | 2431 ft | 203 kts | 107° |
| 2026-05-04 02:14 | -33.93406 | 151.22957 | 2951 ft | 211 kts | 117° |
| 2026-05-04 02:14 | -33.94139 | 151.24493 | 3609 ft | 213 kts | 107° |
| 2026-05-04 02:14 | -33.94315 | 151.26205 | 4231 ft | 207 kts | 72° |
| 2026-05-04 02:15 | -33.94043 | 151.27942 | 4711 ft | 223 kts | 77° |
| 2026-05-04 02:15 | -33.93903 | 151.29886 | 5215 ft | 241 kts | 81° |
| 2026-05-04 02:15 | -33.93803 | 151.31966 | 5721 ft | 259 kts | 82° |
| 2026-05-04 02:15 | -33.93711 | 151.34180 | 6263 ft | 276 kts | 83° |
| 2026-05-04 02:16 | -33.93621 | 151.36533 | 6920 ft | 287 kts | 83° |
| 2026-05-04 02:16 | -33.93528 | 151.38925 | 7772 ft | 291 kts | 83° |
| 2026-05-04 02:16 | -33.93431 | 151.41383 | 8552 ft | 297 kts | 83° |
| 2026-05-04 02:16 | -33.93337 | 151.43855 | 9356 ft | 302 kts | 83° |
| 2026-05-04 02:17 | -33.93255 | 151.46361 | 10187 ft | 306 kts | 88° |
| 2026-05-04 02:17 | -33.93753 | 151.48906 | 10913 ft | 320 kts | 114° |
| 2026-05-04 02:17 | -33.95084 | 151.51019 | 11673 ft | 327 kts | 139° |
| 2026-05-04 02:17 | -33.97032 | 151.52418 | 12408 ft | 329 kts | 158° |
| 2026-05-04 02:18 | -33.99146 | 151.53537 | 13144 ft | 333 kts | 159° |
| 2026-05-04 02:18 | -34.01372 | 151.54202 | 13874 ft | 330 kts | 182° |
| 2026-05-04 02:18 | -34.03598 | 151.53807 | 14541 ft | 326 kts | 204° |
| 2026-05-04 02:18 | -34.05723 | 151.52828 | 15270 ft | 327 kts | 208° |
| 2026-05-04 02:19 | -34.07616 | 151.51431 | 15923 ft | 323 kts | 223° |
| 2026-05-04 02:19 | -34.09305 | 151.49637 | 16598 ft | 320 kts | 233° |
| 2026-05-04 02:19 | -34.10748 | 151.47632 | 17225 ft | 323 kts | 237° |
| 2026-05-04 02:19 | -34.12172 | 151.45526 | 17932 ft | 324 kts | 238° |
| 2026-05-04 02:20 | -34.13583 | 151.43405 | 18586 ft | 326 kts | 237° |
| 2026-05-04 02:20 | -34.14993 | 151.41283 | 19214 ft | 330 kts | 238° |
| 2026-05-04 02:20 | -34.16431 | 151.39107 | 19841 ft | 333 kts | 238° |
| 2026-05-04 02:20 | -34.17894 | 151.36894 | 20434 ft | 337 kts | 238° |
| 2026-05-04 02:21 | -34.19335 | 151.34717 | 21095 ft | 338 kts | 238° |
| 2026-05-04 02:21 | -34.20824 | 151.32460 | 21617 ft | 343 kts | 238° |
| 2026-05-04 02:21 | -34.22288 | 151.30244 | 22293 ft | 342 kts | 238° |
| 2026-05-04 02:21 | -34.23775 | 151.27988 | 22836 ft | 346 kts | 238° |
| 2026-05-04 02:22 | -34.25296 | 151.25684 | 23353 ft | 350 kts | 238° |
| 2026-05-04 02:22 | -34.26800 | 151.23401 | 23913 ft | 352 kts | 238° |
| 2026-05-04 02:22 | -34.28328 | 151.21081 | 24444 ft | 355 kts | 238° |
| 2026-05-04 02:22 | -34.29866 | 151.18745 | 24989 ft | 357 kts | 239° |
| 2026-05-04 02:23 | -34.31424 | 151.16374 | 25503 ft | 360 kts | 239° |
| 2026-05-04 02:23 | -34.32981 | 151.14006 | 26050 ft | 362 kts | 239° |
| 2026-05-04 02:23 | -34.34542 | 151.11627 | 26500 ft | 367 kts | 239° |
| 2026-05-04 02:23 | -34.36138 | 151.09195 | 27045 ft | 368 kts | 239° |
| 2026-05-04 02:24 | -34.37717 | 151.06789 | 27479 ft | 373 kts | 239° |
| 2026-05-04 02:24 | -34.39334 | 151.04321 | 27962 ft | 376 kts | 240° |
| 2026-05-04 02:24 | -34.40962 | 151.01837 | 28403 ft | 380 kts | 240° |
| 2026-05-04 02:24 | -34.42596 | 150.99344 | 28984 ft | 380 kts | 240° |
| 2026-05-04 02:25 | -34.44260 | 150.96796 | 29339 ft | 386 kts | 240° |
| 2026-05-04 02:25 | -34.45927 | 150.94251 | 29843 ft | 388 kts | 240° |
| 2026-05-04 02:25 | -34.47590 | 150.91711 | 30406 ft | 387 kts | 240° |
| 2026-05-04 02:25 | -34.49254 | 150.89159 | 30819 ft | 390 kts | 240° |
| 2026-05-04 02:26 | -34.50940 | 150.86575 | 31282 ft | 391 kts | 239° |
| 2026-05-04 02:26 | -34.52631 | 150.83980 | 31755 ft | 392 kts | 240° |
| 2026-05-04 02:26 | -34.54321 | 150.81380 | 32142 ft | 395 kts | 240° |
| 2026-05-04 02:26 | -34.56007 | 150.78789 | 32673 ft | 393 kts | 240° |
| 2026-05-04 02:27 | -34.57625 | 150.76106 | 32988 ft | 395 kts | 242° |
| 2026-05-04 02:27 | -34.59253 | 150.73393 | 33352 ft | 397 kts | 242° |
| 2026-05-04 02:27 | -34.60879 | 150.70694 | 33766 ft | 398 kts | 241° |
| 2026-05-04 02:27 | -34.62518 | 150.67979 | 34140 ft | 400 kts | 242° |
| 2026-05-04 02:28 | -34.64171 | 150.65228 | 34564 ft | 400 kts | 241° |
| 2026-05-04 02:28 | -34.65804 | 150.62515 | 34976 ft | 401 kts | 242° |
| 2026-05-04 02:28 | -34.67458 | 150.59767 | 35277 ft | 403 kts | 242° |
| 2026-05-04 02:28 | -34.69104 | 150.57025 | 35617 ft | 405 kts | 241° |
| 2026-05-04 02:29 | -34.70758 | 150.54277 | 35980 ft | 405 kts | 242° |
| 2026-05-04 02:29 | -34.72409 | 150.51521 | 36328 ft | 406 kts | 242° |
| 2026-05-04 02:29 | -34.74075 | 150.48741 | 36564 ft | 409 kts | 242° |
| 2026-05-04 02:29 | -34.75751 | 150.45944 | 36784 ft | 412 kts | 242° |
| 2026-05-04 02:30 | -34.77434 | 150.43135 | 37114 ft | 411 kts | 242° |
| 2026-05-04 02:30 | -34.79127 | 150.40302 | 37379 ft | 412 kts | 242° |
| 2026-05-04 02:30 | -34.80804 | 150.37495 | 37548 ft | 415 kts | 242° |
| 2026-05-04 02:30 | -34.82506 | 150.34647 | 37772 ft | 416 kts | 242° |
| 2026-05-04 02:31 | -34.84205 | 150.31795 | 38087 ft | 416 kts | 242° |
| 2026-05-04 02:31 | -34.85925 | 150.28911 | 37955 ft | 422 kts | 242° |
| 2026-05-04 02:31 | -34.89379 | 150.23109 | 38022 ft | 431 kts | 242° |
| 2026-05-04 02:32 | -34.92943 | 150.17117 | 38022 ft | 439 kts | 242° |
| 2026-05-04 02:32 | -34.96550 | 150.11040 | 38020 ft | 446 kts | 242° |
| 2026-05-04 02:33 | -35.00191 | 150.04894 | 38013 ft | 450 kts | 242° |
| 2026-05-04 02:33 | -35.03854 | 149.98704 | 38008 ft | 448 kts | 242° |
| 2026-05-04 02:34 | -35.07468 | 149.92581 | 38001 ft | 446 kts | 242° |
| 2026-05-04 02:34 | -35.11080 | 149.86452 | 38005 ft | 445 kts | 242° |
| 2026-05-04 02:35 | -35.14695 | 149.80306 | 38001 ft | 445 kts | 242° |
| 2026-05-04 02:35 | -35.18295 | 149.74176 | 37995 ft | 448 kts | 242° |
| 2026-05-04 02:36 | -35.21913 | 149.68002 | 37992 ft | 447 kts | 242° |
| 2026-05-04 02:36 | -35.25527 | 149.61830 | 37911 ft | 445 kts | 242° |
| 2026-05-04 02:37 | -35.27314 | 149.58771 | 38021 ft | 446 kts | 242° |
| 2026-05-04 02:37 | -35.29127 | 149.55662 | 37986 ft | 448 kts | 242° |
| 2026-05-04 02:37 | -35.32734 | 149.49480 | 37985 ft | 449 kts | 242° |
| 2026-05-04 02:38 | -35.36356 | 149.43256 | 37984 ft | 449 kts | 242° |
| 2026-05-04 02:38 | -35.39976 | 149.37027 | 37992 ft | 450 kts | 242° |
| 2026-05-04 02:39 | -35.43586 | 149.30800 | 38004 ft | 449 kts | 243° |
| 2026-05-04 02:39 | -35.47198 | 149.24565 | 38017 ft | 448 kts | 243° |
| 2026-05-04 02:40 | -35.50788 | 149.18355 | 38008 ft | 449 kts | 243° |
| 2026-05-04 02:40 | -35.54409 | 149.12077 | 38010 ft | 450 kts | 243° |
| 2026-05-04 02:41 | -35.58013 | 149.05820 | 38004 ft | 450 kts | 243° |
| 2026-05-04 02:41 | -35.61620 | 148.99545 | 38002 ft | 451 kts | 243° |
| 2026-05-04 02:42 | -35.65226 | 148.93259 | 38004 ft | 450 kts | 243° |
| 2026-05-04 02:42 | -35.68825 | 148.86978 | 38005 ft | 449 kts | 243° |
| 2026-05-04 02:43 | -35.72415 | 148.80699 | 37992 ft | 449 kts | 243° |
| 2026-05-04 02:43 | -35.76017 | 148.74388 | 37991 ft | 453 kts | 243° |
| 2026-05-04 02:44 | -35.79599 | 148.68103 | 37994 ft | 448 kts | 243° |
| 2026-05-04 02:44 | -35.83183 | 148.61797 | 37984 ft | 452 kts | 243° |
| 2026-05-04 02:45 | -35.86794 | 148.55437 | 37972 ft | 453 kts | 243° |
| 2026-05-04 02:45 | -35.90380 | 148.49092 | 37992 ft | 450 kts | 243° |
| 2026-05-04 02:46 | -35.93956 | 148.42741 | 37974 ft | 452 kts | 244° |
| 2026-05-04 02:46 | -35.97522 | 148.36403 | 37982 ft | 451 kts | 243° |
| 2026-05-04 02:47 | -36.01091 | 148.30045 | 37998 ft | 451 kts | 244° |
| 2026-05-04 02:47 | -36.04653 | 148.23685 | 37997 ft | 450 kts | 244° |
| 2026-05-04 02:48 | -36.08220 | 148.17307 | 37984 ft | 452 kts | 244° |
| 2026-05-04 02:48 | -36.11794 | 148.10906 | 38001 ft | 454 kts | 244° |
| 2026-05-04 02:49 | -36.15364 | 148.04526 | 38009 ft | 450 kts | 244° |
| 2026-05-04 02:49 | -36.18927 | 147.98143 | 38009 ft | 454 kts | 245° |
| 2026-05-04 02:50 | -36.22516 | 147.91705 | 37985 ft | 455 kts | 244° |
| 2026-05-04 02:50 | -36.26077 | 147.85303 | 37999 ft | 454 kts | 244° |
| 2026-05-04 02:51 | -36.29652 | 147.78868 | 37994 ft | 455 kts | 244° |
| 2026-05-04 02:51 | -36.33243 | 147.72392 | 37984 ft | 454 kts | 244° |
| 2026-05-04 02:52 | -36.36804 | 147.65938 | 37983 ft | 457 kts | 244° |
| 2026-05-04 02:52 | -36.40415 | 147.59386 | 37978 ft | 457 kts | 244° |
| 2026-05-04 02:53 | -36.43962 | 147.52936 | 37974 ft | 457 kts | 244° |
| 2026-05-04 02:53 | -36.47552 | 147.46393 | 37976 ft | 460 kts | 244° |
| 2026-05-04 02:54 | -36.51136 | 147.39851 | 37974 ft | 460 kts | 244° |
| 2026-05-04 02:54 | -36.54736 | 147.33267 | 37994 ft | 457 kts | 244° |
| 2026-05-04 02:55 | -36.60097 | 147.23438 | 37978 ft | 455 kts | 245° |
| 2026-05-04 02:55 | -36.61849 | 147.20226 | 37848 ft | 448 kts | 245° |
| 2026-05-04 02:56 | -36.63590 | 147.17024 | 37577 ft | 443 kts | 245° |
| 2026-05-04 02:56 | -36.65318 | 147.13843 | 37337 ft | 440 kts | 245° |
| 2026-05-04 02:56 | -36.67013 | 147.10716 | 37078 ft | 442 kts | 245° |
| 2026-05-04 02:56 | -36.68743 | 147.07526 | 36828 ft | 444 kts | 245° |
| 2026-05-04 02:57 | -36.70477 | 147.04321 | 36328 ft | 449 kts | 245° |
| 2026-05-04 02:57 | -36.72233 | 147.01079 | 35647 ft | 451 kts | 245° |
| 2026-05-04 02:57 | -36.73957 | 146.97894 | 35116 ft | 451 kts | 245° |
| 2026-05-04 02:57 | -36.75713 | 146.94644 | 34543 ft | 451 kts | 245° |
| 2026-05-04 02:58 | -36.77462 | 146.91403 | 33960 ft | 452 kts | 245° |
| 2026-05-04 02:58 | -36.79224 | 146.88133 | 33324 ft | 454 kts | 245° |
| 2026-05-04 02:58 | -36.80968 | 146.84894 | 32609 ft | 457 kts | 245° |
| 2026-05-04 02:58 | -36.82738 | 146.81602 | 31884 ft | 459 kts | 245° |
| 2026-05-04 02:59 | -36.84523 | 146.78287 | 31188 ft | 460 kts | 245° |
| 2026-05-04 02:59 | -36.86296 | 146.74989 | 30586 ft | 459 kts | 245° |
| 2026-05-04 02:59 | -36.88051 | 146.71719 | 30036 ft | 456 kts | 245° |
| 2026-05-04 02:59 | -36.89823 | 146.68413 | 29475 ft | 453 kts | 245° |
| 2026-05-04 03:00 | -36.91544 | 146.65199 | 28917 ft | 450 kts | 245° |
| 2026-05-04 03:00 | -36.93270 | 146.61974 | 28322 ft | 447 kts | 245° |
| 2026-05-04 03:00 | -36.94995 | 146.58745 | 27717 ft | 445 kts | 245° |
| 2026-05-04 03:00 | -36.96706 | 146.55543 | 27115 ft | 438 kts | 245° |
| 2026-05-04 03:01 | -36.98356 | 146.52457 | 26574 ft | 423 kts | 245° |
| 2026-05-04 03:01 | -36.99978 | 146.49412 | 26170 ft | 416 kts | 245° |
| 2026-05-04 03:01 | -37.01567 | 146.46428 | 25712 ft | 412 kts | 245° |
| 2026-05-04 03:01 | -37.03141 | 146.43466 | 25254 ft | 407 kts | 245° |
| 2026-05-04 03:02 | -37.04689 | 146.40556 | 24796 ft | 403 kts | 245° |
| 2026-05-04 03:02 | -37.06239 | 146.37637 | 24312 ft | 399 kts | 245° |
| 2026-05-04 03:02 | -37.07750 | 146.34788 | 23823 ft | 395 kts | 246° |
| 2026-05-04 03:02 | -37.09262 | 146.31938 | 23329 ft | 392 kts | 246° |
| 2026-05-04 03:03 | -37.10777 | 146.29077 | 22799 ft | 389 kts | 246° |
| 2026-05-04 03:03 | -37.12241 | 146.26309 | 22274 ft | 386 kts | 246° |
| 2026-05-04 03:03 | -37.13716 | 146.23521 | 21774 ft | 382 kts | 245° |
| 2026-05-04 03:03 | -37.15176 | 146.20758 | 21268 ft | 378 kts | 245° |
| 2026-05-04 03:04 | -37.16605 | 146.18054 | 20792 ft | 374 kts | 245° |
| 2026-05-04 03:04 | -37.18027 | 146.15358 | 20319 ft | 369 kts | 245° |
| 2026-05-04 03:04 | -37.19436 | 146.12685 | 19861 ft | 364 kts | 245° |
| 2026-05-04 03:04 | -37.20811 | 146.10077 | 19401 ft | 360 kts | 245° |
| 2026-05-04 03:05 | -37.22189 | 146.07455 | 18947 ft | 355 kts | 245° |
| 2026-05-04 03:05 | -37.23531 | 146.04904 | 18507 ft | 351 kts | 244° |
| 2026-05-04 03:05 | -37.24860 | 146.02374 | 18069 ft | 350 kts | 244° |
| 2026-05-04 03:05 | -37.26201 | 145.99821 | 17626 ft | 347 kts | 244° |
| 2026-05-04 03:06 | -37.27528 | 145.97295 | 17189 ft | 344 kts | 244° |
| 2026-05-04 03:06 | -37.28827 | 145.94818 | 16755 ft | 341 kts | 244° |
| 2026-05-04 03:06 | -37.30127 | 145.92331 | 16316 ft | 340 kts | 244° |
| 2026-05-04 03:06 | -37.31410 | 145.89887 | 15878 ft | 338 kts | 244° |
| 2026-05-04 03:07 | -37.32708 | 145.87418 | 15421 ft | 336 kts | 243° |
| 2026-05-04 03:07 | -37.33984 | 145.84988 | 14980 ft | 334 kts | 243° |
| 2026-05-04 03:07 | -37.35256 | 145.82564 | 14511 ft | 333 kts | 243° |
| 2026-05-04 03:07 | -37.36523 | 145.80145 | 14045 ft | 331 kts | 243° |
| 2026-05-04 03:08 | -37.37790 | 145.77727 | 13577 ft | 329 kts | 242° |
| 2026-05-04 03:08 | -37.39035 | 145.75349 | 13113 ft | 328 kts | 242° |
| 2026-05-04 03:08 | -37.40274 | 145.72983 | 12651 ft | 325 kts | 242° |
| 2026-05-04 03:08 | -37.41518 | 145.70605 | 12191 ft | 323 kts | 242° |
| 2026-05-04 03:09 | -37.42739 | 145.68268 | 11749 ft | 320 kts | 242° |
| 2026-05-04 03:09 | -37.43948 | 145.65953 | 11325 ft | 318 kts | 242° |
| 2026-05-04 03:09 | -37.45163 | 145.63641 | 10916 ft | 315 kts | 240° |
| 2026-05-04 03:09 | -37.46456 | 145.61414 | 10521 ft | 308 kts | 244° |
| 2026-05-04 03:10 | -37.47575 | 145.59151 | 10183 ft | 304 kts | 243° |
| 2026-05-04 03:10 | -37.48706 | 145.56938 | 10143 ft | 300 kts | 243° |
| 2026-05-04 03:10 | -37.49827 | 145.54781 | 9985 ft | 283 kts | 243° |
| 2026-05-04 03:10 | -37.50867 | 145.52785 | 9885 ft | 264 kts | 243° |
| 2026-05-04 03:11 | -37.51849 | 145.50905 | 9803 ft | 256 kts | 243° |
| 2026-05-04 03:11 | -37.52832 | 145.49019 | 9550 ft | 258 kts | 243° |
| 2026-05-04 03:11 | -37.53821 | 145.47122 | 9269 ft | 257 kts | 243° |
| 2026-05-04 03:11 | -37.54801 | 145.45247 | 8977 ft | 257 kts | 244° |
| 2026-05-04 03:12 | -37.55784 | 145.43356 | 8518 ft | 264 kts | 244° |
| 2026-05-04 03:12 | -37.56800 | 145.41406 | 8067 ft | 269 kts | 243° |
| 2026-05-04 03:12 | -37.57827 | 145.39435 | 7607 ft | 273 kts | 243° |
| 2026-05-04 03:12 | -37.58879 | 145.37421 | 7146 ft | 277 kts | 243° |
| 2026-05-04 03:13 | -37.59950 | 145.35367 | 6670 ft | 281 kts | 243° |
| 2026-05-04 03:13 | -37.61018 | 145.33319 | 6227 ft | 283 kts | 244° |
| 2026-05-04 03:13 | -37.62093 | 145.31256 | 6051 ft | 275 kts | 244° |
| 2026-05-04 03:13 | -37.63119 | 145.29291 | 6039 ft | 262 kts | 244° |
| 2026-05-04 03:14 | -37.64092 | 145.27420 | 5998 ft | 252 kts | 245° |
| 2026-05-04 03:14 | -37.64798 | 145.25482 | 5837 ft | 239 kts | 266° |
| 2026-05-04 03:14 | -37.65010 | 145.23433 | 5718 ft | 236 kts | 270° |
| 2026-05-04 03:14 | -37.65227 | 145.21379 | 5621 ft | 233 kts | 270° |
| 2026-05-04 03:15 | -37.65437 | 145.19359 | 5478 ft | 234 kts | 270° |
| 2026-05-04 03:15 | -37.65648 | 145.17314 | 5326 ft | 235 kts | 270° |
| 2026-05-04 03:15 | -37.65857 | 145.15297 | 5207 ft | 229 kts | 269° |
| 2026-05-04 03:15 | -37.66058 | 145.13386 | 5133 ft | 214 kts | 270° |
| 2026-05-04 03:16 | -37.66247 | 145.11522 | 4731 ft | 217 kts | 271° |
| 2026-05-04 03:16 | -37.66443 | 145.09595 | 4233 ft | 223 kts | 270° |
| 2026-05-04 03:16 | -37.66640 | 145.07667 | 3799 ft | 226 kts | 270° |
| 2026-05-04 03:16 | -37.66899 | 145.05693 | 3433 ft | 227 kts | 265° |
| 2026-05-04 03:17 | -37.67104 | 145.03809 | 3338 ft | 208 kts | 275° |
| 2026-05-04 03:17 | -37.67129 | 145.02025 | 3060 ft | 201 kts | 279° |
| 2026-05-04 03:17 | -37.67084 | 145.00296 | 2801 ft | 193 kts | 281° |
| 2026-05-04 03:17 | -37.67018 | 144.98675 | 2540 ft | 175 kts | 283° |
| 2026-05-04 03:18 | -37.66941 | 144.97214 | 2322 ft | 161 kts | 284° |
| 2026-05-04 03:18 | -37.66867 | 144.95871 | 2215 ft | 156 kts | 284° |